Wright Pat, Ohio
Current Conditions -  °F | °C
As of 3:58 PM on Thursday 27 Nov 2014 (Local Time) from KFFO Reporting Station
Light Snow Light Snow  
Wind Chill: -5°   Ceiling: 2000
Heat Index:   Visibility: 10mi
Dew Point: -3°   Wind: 10mph
Humidity: 83%   Direction: 280°W
Pressure: 30.26"   Gusts: NA
Location:  39.8169°N, 84.0506°W
Report Text: KFFO 272058Z 28009KT 10SM -SN OVC020 00/M03 A3026 RMK AO2A SLP260 P0000 60000 T10031028 52009
Loading
Personal Weather Stations






























Interactive Weather Map New forecast layout! Learn more

10-Day Weather Forecast

Advertisements
Track Severe Weather on mobile